Terre Haute, IN (47805)

6:35 AM EST on December 09, 2016 (GMT -0500)
Shrine Hill | | Change Station
Active Advisory: Special Statement

Elev 594 ft 39.51 °N, 87.35 °W | Updated 3 seconds ago

Overcast
Overcast
20.7 °F
Feels Like 21 °F
N
3.0
Wind Variable Wind from West

Today
High -- | Low -- °F
--% Chance of Precip.
Yesterday
High -- | Low -- °F
Precip. -- in
Pressure 30.57 in
Visibility 10.0 miles
Clouds Overcast 2900 ft
Windchill 21 °F
Dew Point 15 °F
Humidity 81%
Rainfall 0.00 in
Snow Depth Not available.
7:58 AM 5:25 PM
Waxing Gibbous, 73% visible
METAR KHUF 091053Z 28007KT 10SM OVC029 M06/M11 A3054 RMK AO2 SNB0958E08 SLP352 P0000 T10561106
Pressure 30.57 in
Visibility 10.0 miles
Clouds Overcast 2900 ft
Windchill 21 °F
Dew Point 15 °F
Humidity 81%
Rainfall 0.00 in
Snow Depth Not available.
7:58 AM 5:25 PM
Waxing Gibbous, 73% visible
METAR KHUF 091053Z 28007KT 10SM OVC029 M06/M11 A3054 RMK AO2 SNB0958E08 SLP352 P0000 T10561106

10-Day Weather Forecast

Almanac

Astronomy

Dec. 09, 2016 Rise Set
Actual Time
Civil Twilight
Nautical Twilight
Astronomical Twilight
Moon
Length of Visible Light
Length of Day
Tomorrow will be .
, % of the Moon is Illuminated

Today's Extremes

State Highs State Lows

Community

WunderPhotos

Upload Photos

1,956,378 photos uploaded!

WunderBlog® & News

Nearby

Air Quality

  Air Quality AQ Index Pollutant
Not available.

Snow Depth

Station Depth Elevation

Earthquake Activity

City Distance Mag. Time & Date
Minimum magnitude displayed is 2.5.

Coastal Water Temperatures

Place Temperature

Stations

Nearby Weather Stations

Station Location Temp. Windchill Dew Point Humidity Wind Precip. Elev Updated Type
                   

Watches & Warnings

Special Statement
Issued: 4:02 AM EST Dec. 9, 2016 – National Weather Service

... Snow has returned to central Indiana...

Snow flurries and light snow showers occurred across central
Indiana overnight and will continue into the morning hours. Some
areas may see minimal... thin accumulations of snow that could
result in some slippery surfaces.

This is the first snowfall of the season for much of central
Indiana. Exercise caution this morning if you are driving and
encounter any snow accumulations.


Puma

402 am EST Fri Dec 9 2016

... Snow has returned to central Indiana...

Snow flurries and light snow showers occurred across central
Indiana overnight and will continue into the morning hours. Some
areas may see minimal... thin accumulations of snow that could
result in some slippery surfaces.

This is the first snowfall of the season for much of central
Indiana. Exercise caution this morning if you are driving and
encounter any snow accumulations.


Puma